Flight Track Log - Related Links

Times and Time Zones

All times are in EDT time to prevent confusion due to time zone crossing. See the N91FR flight status page for this flight to view local times or setup timezone preferences in your user account.

Time Position Orientation Groundspeed Altitude Reporting Facility
EDT Latitude Longitude Course Direction KTS MPH feet Rate Location/Type
Sat 02:06:51 PM 40.9908 -124.1178 51° Northeast 111 128 800  Level Seattle Center
Sat 02:07:52 PM 40.9817 -124.1472 248° West 88 101 1,500 639 Climbing Seattle Center
Sat 02:08:53 PM 40.9767 -124.1850 260° West 96 110 2,100 639 Climbing Seattle Center
Sat 02:09:54 PM 40.9761 -124.2236 269° West 101 116 2,800 645 Climbing Seattle Center
Sat 02:10:54 PM 40.9986 -124.2350 339° North 106 122 3,400 595 Climbing Seattle Center
Sat 02:11:00 PM 41.1613 -123.9499 41° Northeast  Level Estimated
Sat 02:11:55 PM 41.0283 -124.2361 358° North 105 121 4,000  Level Seattle Center
Sat 02:12:00 PM 41.1843 -123.9122 51° Northeast  Level FlightAware Approximate
Sat 02:12:56 PM 41.0514 -124.2183 30° Northeast 114 131 4,600  Level Seattle Center
Sat 02:13:57 PM 41.0711 -124.1925 45° Northeast 106 122 5,100 590 Climbing Seattle Center
Sat 02:14:58 PM 41.0919 -124.1653 45° Northeast 104 120 5,800 590 Climbing Seattle Center
Sat 02:15:59 PM 41.1128 -124.1375 45° Northeast 105 121 6,300 590 Climbing Seattle Center
Sat 02:17:00 PM 41.1328 -124.1083 48° Northeast 105 121 7,000 645 Climbing Seattle Center
Sat 02:18:00 PM 41.1536 -124.0797 46° Northeast 106 122 7,600 595 Climbing Seattle Center
Sat 02:19:01 PM 41.1739 -124.0506 47° Northeast 107 123 8,200 541 Climbing Seattle Center
Sat 02:20:02 PM 41.1950 -124.0222 45° Northeast 108 124 8,700 541 Climbing Seattle Center
Sat 02:21:03 PM 41.2169 -123.9914 47° Northeast 111 128 9,300 639 Climbing Seattle Center
Sat 02:22:04 PM 41.2431 -123.9539 47° Northeast 114 131 10,000 344 Climbing Seattle Center
Sat 02:23:05 PM 41.2678 -123.9206 45° Northeast 118 136 10,000  Level Seattle Center
Sat 02:24:06 PM 41.2953 -123.8833 45° Northeast 128 147 10,000  Level Seattle Center
Sat 02:25:06 PM 41.3214 -123.8450 48° Northeast 136 157 10,000  Level Seattle Center
Sat 02:26:07 PM 41.3481 -123.8089 45° Northeast 137 158 10,000  Level Seattle Center
Sat 02:27:08 PM 41.3731 -123.7728 47° Northeast 135 155 10,000  Level Seattle Center
Sat 02:28:09 PM 41.3986 -123.7367 47° Northeast 134 154 10,000  Level Seattle Center
Sat 02:29:10 PM 41.4247 -123.7000 46° Northeast 135 155 10,000  Level Seattle Center
Sat 02:30:11 PM 41.4500 -123.6622 48° Northeast 136 157 10,000  Level Seattle Center
Sat 02:31:12 PM 41.4761 -123.6258 46° Northeast 137 158 10,000  Level Seattle Center
Sat 02:32:13 PM 41.5028 -123.5897 45° Northeast 137 158 10,000  Level Seattle Center
Sat 02:33:14 PM 41.5289 -123.5497 49° Northeast 139 160 10,000  Level Seattle Center
Sat 02:34:15 PM 41.5581 -123.5131 43° Northeast 141 162 10,000  Level Seattle Center
Sat 02:35:16 PM 41.5844 -123.4764 46° Northeast 141 162 10,000  Level Seattle Center
Sat 02:36:16 PM 41.6164 -123.4311 47° Northeast 140 161 10,000  Level Seattle Center
Sat 02:37:17 PM 41.6417 -123.3936 48° Northeast 138 159 10,000  Level Seattle Center
Sat 02:38:18 PM 41.6681 -123.3558 47° Northeast 138 159 10,000  Level Seattle Center
Sat 02:39:19 PM 41.6947 -123.3183 46° Northeast 139 160 10,000  Level Seattle Center
Sat 02:40:20 PM 41.7208 -123.2803 47° Northeast 139 160 10,000  Level Seattle Center
Sat 02:41:21 PM 41.7475 -123.2425 47° Northeast 139 160 10,000  Level Seattle Center
Sat 02:42:22 PM 41.7739 -123.2042 47° Northeast 140 161 10,000  Level Seattle Center
Sat 02:43:23 PM 41.8014 -123.1661 46° Northeast 142 163 10,000  Level Seattle Center
Sat 02:44:24 PM 41.8278 -123.1283 47° Northeast 139 160 10,000  Level Seattle Center
Sat 02:45:25 PM 41.8544 -123.0897 47° Northeast 140 161 10,000  Level Seattle Center
Sat 02:46:26 PM 41.8811 -123.0519 47° Northeast 139 160 10,000  Level Seattle Center
Sat 02:47:27 PM 41.9053 -123.0147 49° Northeast 135 155 10,000  Level Seattle Center
Sat 02:48:28 PM 41.9322 -122.9775 46° Northeast 137 158 10,000  Level Seattle Center
Sat 02:49:29 PM 41.9633 -122.9314 48° Northeast 138 159 10,000  Level Seattle Center
Sat 02:50:30 PM 41.9900 -122.8944 46° Northeast 137 158 10,000  Level Seattle Center
Sat 02:51:31 PM 42.0167 -122.8564 47° Northeast 140 161 10,000  Level Seattle Center
Sat 02:52:32 PM 42.0419 -122.8189 48° Northeast 136 157 10,000  Level Seattle Center
Sat 02:53:33 PM 42.0683 -122.7811 47° Northeast 138 159 10,000 -295 Level Seattle Center
Sat 02:54:34 PM 42.0964 -122.7397 48° Northeast 148 170 9,400 -590 Descending Seattle Center
Sat 02:55:35 PM 42.1361 -122.7486 351° North 149 171 8,800 -639 Descending Seattle Center
Sat 02:56:36 PM 42.1747 -122.7672 340° North 146 168 8,100 -689 Descending Seattle Center
Sat 02:57:37 PM 42.2114 -122.7864 339° North 142 163 7,400 -639 Descending Seattle Center
Sat 02:58:38 PM 42.2458 -122.8058 337° Northwest 134 154 6,800 -787 Descending Seattle Center
Sat 02:59:39 PM 42.2769 -122.8211 340° North 121 139 5,800 -984 Descending Seattle Center
Sat 03:00:40 PM 42.3028 -122.8356 338° Northwest 104 120 4,800 -1,131 Descending Seattle Center
Sat 03:01:41 PM 42.3319 -122.8517 338° Northwest 95 109 3,500 -1,475 Descending Seattle Center
Sat 03:02:42 PM 42.3544 -122.8633 339° North 90 104 1,800 -1,082 Descending Seattle Center
Sat 03:03:43 PM 42.3744 -122.8717 343° North 83 96 1,300 -492 Descending Seattle Center
Sat 03:05:00 PM 42.3742 -122.8735 North  Level Estimated
Sat 03:12:00 PM 42.3742 -122.8735 North  Level Estimated

Login

Don't have an account? Register now (free) for customized features, flight alerts, and more!